Weather at University Hospital/Sicu Heliport

Public forecast

Using degrees Fahrenheit for public forecast. Weather courtesy of forecast.io.

Closest aviation weather report (METAR) to University Hospital/Sicu Heliport

Closest report is Cincinnati Municipal Airport Lunken Field, 4.4 nm (8.2 km) ESE. Retrieved 2021/06/20 09:53 UTC (9 minutes ago):

KLUK 200953Z AUTO 23003KT 10SM FEW120 21/20 A2983 RMK AO2 SLP097 T02110200

Closest aviation forecast (TAF) to University Hospital/Sicu Heliport

Closest forecast is Cincinnati Municipal Airport Lunken Field, 4.4 nm (8.2 km) ESE. Retrieved 2021/06/20 06:22 UTC (4 hours ago):

TAF KLUK 200520Z 2006/2106 00000KT 4SM BR BKN080 FM201200 VRB03KT P6SM BKN080 FM201500 21009KT P6SM SCT060 BKN250 FM210000 VRB03KT P6SM BKN200